<?xml version="1.0" encoding="UTF-8" standalone="no" ?>
<gpx xmlns="http://www.topografix.com/GPX/1/1" xmlns:xsi="http://www.w3.org/2001/XMLSchema-instance" xsi:schemaLocation="http://www.topografix.com/GPX/1/1 http://www.topografix.com/GPX/1/1/gpx.xsd" version="1.1" creator="VisuGPX - https://www.visugpx.com">
  <metadata>
    <name>Venise-Pamir J103 - Kirghiztan</name>
    <desc><![CDATA[50% macadam  50% piste                                        ]]></desc>
  </metadata>
  <trk>
    <name><![CDATA[Venise-Pamir J103 - Kirghiztan_1]]></name>
    <trkseg>
      <trkpt lat="41.99581" lon="74.96186">
        <ele>2081.3</ele>
        <time>2018-09-12T02:48:00.000Z</time>
      </trkpt>
      <trkpt lat="41.9936" lon="74.95932">
        <ele>2090.7</ele>
        <time>2018-09-12T02:49:02.000Z</time>
      </trkpt>
      <trkpt lat="41.99248" lon="74.95828">
        <ele>2092.8</ele>
        <time>2018-09-12T02:50:06.000Z</time>
      </trkpt>
      <trkpt lat="41.98991" lon="74.95622">
        <ele>2096.7</ele>
        <time>2018-09-12T02:51:07.000Z</time>
      </trkpt>
      <trkpt lat="41.9909" lon="74.95476">
        <ele>2112.9</ele>
        <time>2018-09-12T02:52:08.000Z</time>
      </trkpt>
      <trkpt lat="41.99185" lon="74.95279">
        <ele>2147.6</ele>
        <time>2018-09-12T02:53:09.000Z</time>
      </trkpt>
      <trkpt lat="41.99309" lon="74.94953">
        <ele>2135.5</ele>
        <time>2018-09-12T02:54:10.000Z</time>
      </trkpt>
      <trkpt lat="41.99411" lon="74.94678">
        <ele>2136.9</ele>
        <time>2018-09-12T02:55:11.000Z</time>
      </trkpt>
      <trkpt lat="41.99488" lon="74.94448">
        <ele>2143.7</ele>
        <time>2018-09-12T02:56:12.000Z</time>
      </trkpt>
      <trkpt lat="41.99565" lon="74.94236">
        <ele>2156.1</ele>
        <time>2018-09-12T02:57:12.000Z</time>
      </trkpt>
      <trkpt lat="41.99674" lon="74.94345">
        <ele>2156.5</ele>
        <time>2018-09-12T02:59:15.000Z</time>
      </trkpt>
      <trkpt lat="41.99778" lon="74.94462">
        <ele>2170.3</ele>
        <time>2018-09-12T03:00:51.000Z</time>
      </trkpt>
      <trkpt lat="41.999" lon="74.94541">
        <ele>2177</ele>
        <time>2018-09-12T03:02:02.000Z</time>
      </trkpt>
      <trkpt lat="42.00015" lon="74.94641">
        <ele>2188.7</ele>
        <time>2018-09-12T03:04:01.000Z</time>
      </trkpt>
      <trkpt lat="42.00169" lon="74.94789">
        <ele>2192.6</ele>
        <time>2018-09-12T03:05:02.000Z</time>
      </trkpt>
      <trkpt lat="42.00335" lon="74.95016">
        <ele>2189.4</ele>
        <time>2018-09-12T03:06:03.000Z</time>
      </trkpt>
      <trkpt lat="42.00453" lon="74.95267">
        <ele>2195.5</ele>
        <time>2018-09-12T03:07:04.000Z</time>
      </trkpt>
      <trkpt lat="42.00619" lon="74.95473">
        <ele>2196.6</ele>
        <time>2018-09-12T03:08:05.000Z</time>
      </trkpt>
      <trkpt lat="42.00772" lon="74.95649">
        <ele>2205.5</ele>
        <time>2018-09-12T03:09:06.000Z</time>
      </trkpt>
      <trkpt lat="42.00918" lon="74.95817">
        <ele>2210.2</ele>
        <time>2018-09-12T03:10:07.000Z</time>
      </trkpt>
      <trkpt lat="42.01107" lon="74.95973">
        <ele>2209.6</ele>
        <time>2018-09-12T03:11:08.000Z</time>
      </trkpt>
      <trkpt lat="42.01296" lon="74.9606">
        <ele>2211.5</ele>
        <time>2018-09-12T03:12:09.000Z</time>
      </trkpt>
      <trkpt lat="42.01426" lon="74.962">
        <ele>2214.6</ele>
        <time>2018-09-12T03:13:10.000Z</time>
      </trkpt>
      <trkpt lat="42.01563" lon="74.9634">
        <ele>2217.8</ele>
        <time>2018-09-12T03:14:11.000Z</time>
      </trkpt>
      <trkpt lat="42.01697" lon="74.96493">
        <ele>2220.3</ele>
        <time>2018-09-12T03:15:12.000Z</time>
      </trkpt>
      <trkpt lat="42.01813" lon="74.9664">
        <ele>2221</ele>
        <time>2018-09-12T03:16:13.000Z</time>
      </trkpt>
      <trkpt lat="42.01955" lon="74.96819">
        <ele>2224.1</ele>
        <time>2018-09-12T03:17:14.000Z</time>
      </trkpt>
      <trkpt lat="42.0209" lon="74.96991">
        <ele>2224.8</ele>
        <time>2018-09-12T03:18:15.000Z</time>
      </trkpt>
      <trkpt lat="42.02244" lon="74.97199">
        <ele>2226.7</ele>
        <time>2018-09-12T03:19:16.000Z</time>
      </trkpt>
      <trkpt lat="42.0239" lon="74.97421">
        <ele>2228.7</ele>
        <time>2018-09-12T03:20:17.000Z</time>
      </trkpt>
      <trkpt lat="42.02526" lon="74.97682">
        <ele>2223</ele>
        <time>2018-09-12T03:21:18.000Z</time>
      </trkpt>
      <trkpt lat="42.02639" lon="74.97872">
        <ele>2229.1</ele>
        <time>2018-09-12T03:22:19.000Z</time>
      </trkpt>
      <trkpt lat="42.02771" lon="74.98033">
        <ele>2233.2</ele>
        <time>2018-09-12T03:23:20.000Z</time>
      </trkpt>
      <trkpt lat="42.029" lon="74.98162">
        <ele>2235</ele>
        <time>2018-09-12T03:24:21.000Z</time>
      </trkpt>
      <trkpt lat="42.03039" lon="74.9829">
        <ele>2242.5</ele>
        <time>2018-09-12T03:25:22.000Z</time>
      </trkpt>
      <trkpt lat="42.03135" lon="74.98437">
        <ele>2240.7</ele>
        <time>2018-09-12T03:26:23.000Z</time>
      </trkpt>
      <trkpt lat="42.03237" lon="74.98637">
        <ele>2241.6</ele>
        <time>2018-09-12T03:27:24.000Z</time>
      </trkpt>
      <trkpt lat="42.0335" lon="74.98848">
        <ele>2244.4</ele>
        <time>2018-09-12T03:28:25.000Z</time>
      </trkpt>
      <trkpt lat="42.03491" lon="74.99066">
        <ele>2246.6</ele>
        <time>2018-09-12T03:29:26.000Z</time>
      </trkpt>
      <trkpt lat="42.03646" lon="74.99247">
        <ele>2249.9</ele>
        <time>2018-09-12T03:30:27.000Z</time>
      </trkpt>
      <trkpt lat="42.03763" lon="74.99426">
        <ele>2252.8</ele>
        <time>2018-09-12T03:31:28.000Z</time>
      </trkpt>
      <trkpt lat="42.03878" lon="74.99595">
        <ele>2257.4</ele>
        <time>2018-09-12T03:32:29.000Z</time>
      </trkpt>
      <trkpt lat="42.04023" lon="74.99772">
        <ele>2261.7</ele>
        <time>2018-09-12T03:33:30.000Z</time>
      </trkpt>
      <trkpt lat="42.04162" lon="74.99931">
        <ele>2265.4</ele>
        <time>2018-09-12T03:34:31.000Z</time>
      </trkpt>
      <trkpt lat="42.04298" lon="75.00082">
        <ele>2267.5</ele>
        <time>2018-09-12T03:35:32.000Z</time>
      </trkpt>
      <trkpt lat="42.0445" lon="75.00253">
        <ele>2273</ele>
        <time>2018-09-12T03:36:33.000Z</time>
      </trkpt>
      <trkpt lat="42.04597" lon="75.0042">
        <ele>2276.5</ele>
        <time>2018-09-12T03:37:34.000Z</time>
      </trkpt>
      <trkpt lat="42.0473" lon="75.00571">
        <ele>2280.8</ele>
        <time>2018-09-12T03:38:35.000Z</time>
      </trkpt>
      <trkpt lat="42.04855" lon="75.00716">
        <ele>2283</ele>
        <time>2018-09-12T03:39:36.000Z</time>
      </trkpt>
      <trkpt lat="42.04994" lon="75.00854">
        <ele>2287.3</ele>
        <time>2018-09-12T03:40:37.000Z</time>
      </trkpt>
      <trkpt lat="42.05139" lon="75.00992">
        <ele>2293.3</ele>
        <time>2018-09-12T03:41:38.000Z</time>
      </trkpt>
      <trkpt lat="42.05285" lon="75.01142">
        <ele>2293.8</ele>
        <time>2018-09-12T03:42:39.000Z</time>
      </trkpt>
      <trkpt lat="42.05426" lon="75.01281">
        <ele>2301.8</ele>
        <time>2018-09-12T03:43:40.000Z</time>
      </trkpt>
      <trkpt lat="42.05553" lon="75.01419">
        <ele>2304.2</ele>
        <time>2018-09-12T03:44:41.000Z</time>
      </trkpt>
      <trkpt lat="42.05655" lon="75.01614">
        <ele>2301.4</ele>
        <time>2018-09-12T03:45:42.000Z</time>
      </trkpt>
      <trkpt lat="42.05729" lon="75.01824">
        <ele>2306.7</ele>
        <time>2018-09-12T03:46:43.000Z</time>
      </trkpt>
      <trkpt lat="42.05812" lon="75.01968">
        <ele>2312.4</ele>
        <time>2018-09-12T03:47:46.000Z</time>
      </trkpt>
      <trkpt lat="42.0593" lon="75.0214">
        <ele>2316.4</ele>
        <time>2018-09-12T03:48:47.000Z</time>
      </trkpt>
      <trkpt lat="42.06067" lon="75.02341">
        <ele>2318.9</ele>
        <time>2018-09-12T03:49:48.000Z</time>
      </trkpt>
      <trkpt lat="42.06198" lon="75.0253">
        <ele>2324</ele>
        <time>2018-09-12T03:50:49.000Z</time>
      </trkpt>
      <trkpt lat="42.06325" lon="75.02716">
        <ele>2327.3</ele>
        <time>2018-09-12T03:51:50.000Z</time>
      </trkpt>
      <trkpt lat="42.06444" lon="75.0292">
        <ele>2330</ele>
        <time>2018-09-12T03:52:51.000Z</time>
      </trkpt>
      <trkpt lat="42.06553" lon="75.03117">
        <ele>2333.8</ele>
        <time>2018-09-12T03:53:52.000Z</time>
      </trkpt>
      <trkpt lat="42.06655" lon="75.03291">
        <ele>2342.7</ele>
        <time>2018-09-12T03:54:53.000Z</time>
      </trkpt>
      <trkpt lat="42.06776" lon="75.03506">
        <ele>2343.3</ele>
        <time>2018-09-12T03:55:54.000Z</time>
      </trkpt>
      <trkpt lat="42.06886" lon="75.03704">
        <ele>2345.1</ele>
        <time>2018-09-12T03:56:55.000Z</time>
      </trkpt>
      <trkpt lat="42.0697" lon="75.03851">
        <ele>2349.1</ele>
        <time>2018-09-12T03:57:56.000Z</time>
      </trkpt>
      <trkpt lat="42.07014" lon="75.04077">
        <ele>2357.1</ele>
        <time>2018-09-12T03:58:57.000Z</time>
      </trkpt>
      <trkpt lat="42.07079" lon="75.04343">
        <ele>2357.5</ele>
        <time>2018-09-12T03:59:58.000Z</time>
      </trkpt>
      <trkpt lat="42.07158" lon="75.04572">
        <ele>2359.2</ele>
        <time>2018-09-12T04:00:59.000Z</time>
      </trkpt>
      <trkpt lat="42.07278" lon="75.04728">
        <ele>2361.2</ele>
        <time>2018-09-12T04:02:00.000Z</time>
      </trkpt>
      <trkpt lat="42.0739" lon="75.04854">
        <ele>2367</ele>
        <time>2018-09-12T04:03:01.000Z</time>
      </trkpt>
      <trkpt lat="42.07491" lon="75.04975">
        <ele>2380.3</ele>
        <time>2018-09-12T04:06:38.000Z</time>
      </trkpt>
      <trkpt lat="42.07634" lon="75.05152">
        <ele>2383.4</ele>
        <time>2018-09-12T04:07:39.000Z</time>
      </trkpt>
      <trkpt lat="42.07804" lon="75.05239">
        <ele>2388.3</ele>
        <time>2018-09-12T04:08:40.000Z</time>
      </trkpt>
      <trkpt lat="42.07917" lon="75.05381">
        <ele>2390.6</ele>
        <time>2018-09-12T04:09:41.000Z</time>
      </trkpt>
      <trkpt lat="42.08006" lon="75.0553">
        <ele>2394.3</ele>
        <time>2018-09-12T04:10:42.000Z</time>
      </trkpt>
      <trkpt lat="42.0809" lon="75.05675">
        <ele>2398</ele>
        <time>2018-09-12T04:11:44.000Z</time>
      </trkpt>
      <trkpt lat="42.08153" lon="75.05866">
        <ele>2403.4</ele>
        <time>2018-09-12T04:12:45.000Z</time>
      </trkpt>
      <trkpt lat="42.08228" lon="75.06038">
        <ele>2404.7</ele>
        <time>2018-09-12T04:13:46.000Z</time>
      </trkpt>
      <trkpt lat="42.08241" lon="75.06227">
        <ele>2411.3</ele>
        <time>2018-09-12T04:14:47.000Z</time>
      </trkpt>
      <trkpt lat="42.08282" lon="75.06423">
        <ele>2413.5</ele>
        <time>2018-09-12T04:15:47.000Z</time>
      </trkpt>
      <trkpt lat="42.08353" lon="75.06635">
        <ele>2420.2</ele>
        <time>2018-09-12T04:16:48.000Z</time>
      </trkpt>
      <trkpt lat="42.08423" lon="75.06845">
        <ele>2422.1</ele>
        <time>2018-09-12T04:17:49.000Z</time>
      </trkpt>
      <trkpt lat="42.08489" lon="75.07058">
        <ele>2429.9</ele>
        <time>2018-09-12T04:18:50.000Z</time>
      </trkpt>
      <trkpt lat="42.08492" lon="75.07241">
        <ele>2445</ele>
        <time>2018-09-12T04:20:02.000Z</time>
      </trkpt>
      <trkpt lat="42.08469" lon="75.07455">
        <ele>2452.4</ele>
        <time>2018-09-12T04:21:03.000Z</time>
      </trkpt>
      <trkpt lat="42.08377" lon="75.07716">
        <ele>2508</ele>
        <time>2018-09-12T04:22:04.000Z</time>
      </trkpt>
      <trkpt lat="42.08315" lon="75.07921">
        <ele>2452.6</ele>
        <time>2018-09-12T04:23:05.000Z</time>
      </trkpt>
      <trkpt lat="42.08367" lon="75.08095">
        <ele>2461</ele>
        <time>2018-09-12T04:24:06.000Z</time>
      </trkpt>
      <trkpt lat="42.08411" lon="75.0827">
        <ele>2461.6</ele>
        <time>2018-09-12T04:25:18.000Z</time>
      </trkpt>
      <trkpt lat="42.08499" lon="75.08441">
        <ele>2463.5</ele>
        <time>2018-09-12T04:26:19.000Z</time>
      </trkpt>
      <trkpt lat="42.08616" lon="75.0862">
        <ele>2471.6</ele>
        <time>2018-09-12T04:27:20.000Z</time>
      </trkpt>
      <trkpt lat="42.08682" lon="75.08832">
        <ele>2479.1</ele>
        <time>2018-09-12T04:28:21.000Z</time>
      </trkpt>
      <trkpt lat="42.08732" lon="75.09038">
        <ele>2486.2</ele>
        <time>2018-09-12T04:29:22.000Z</time>
      </trkpt>
      <trkpt lat="42.08793" lon="75.09253">
        <ele>2489.1</ele>
        <time>2018-09-12T04:30:23.000Z</time>
      </trkpt>
      <trkpt lat="42.08859" lon="75.09413">
        <ele>2492.5</ele>
        <time>2018-09-12T04:31:28.000Z</time>
      </trkpt>
      <trkpt lat="42.08963" lon="75.09543">
        <ele>2499</ele>
        <time>2018-09-12T04:32:29.000Z</time>
      </trkpt>
      <trkpt lat="42.09073" lon="75.0965">
        <ele>2508.2</ele>
        <time>2018-09-12T04:33:32.000Z</time>
      </trkpt>
      <trkpt lat="42.09207" lon="75.09706">
        <ele>2526.6</ele>
        <time>2018-09-12T04:34:33.000Z</time>
      </trkpt>
      <trkpt lat="42.09297" lon="75.09842">
        <ele>2523.8</ele>
        <time>2018-09-12T04:35:57.000Z</time>
      </trkpt>
      <trkpt lat="42.09339" lon="75.10018">
        <ele>2538.5</ele>
        <time>2018-09-12T04:37:00.000Z</time>
      </trkpt>
      <trkpt lat="42.09338" lon="75.10202">
        <ele>2550.8</ele>
        <time>2018-09-12T04:38:07.000Z</time>
      </trkpt>
      <trkpt lat="42.09419" lon="75.10348">
        <ele>2536.7</ele>
        <time>2018-09-12T04:39:22.000Z</time>
      </trkpt>
      <trkpt lat="42.0952" lon="75.10474">
        <ele>2546.8</ele>
        <time>2018-09-12T04:40:28.000Z</time>
      </trkpt>
      <trkpt lat="42.09631" lon="75.10611">
        <ele>2552.3</ele>
        <time>2018-09-12T04:41:29.000Z</time>
      </trkpt>
      <trkpt lat="42.09658" lon="75.10791">
        <ele>2562.2</ele>
        <time>2018-09-12T04:42:34.000Z</time>
      </trkpt>
      <trkpt lat="42.09597" lon="75.10954">
        <ele>2566.2</ele>
        <time>2018-09-12T04:43:45.000Z</time>
      </trkpt>
      <trkpt lat="42.09534" lon="75.11116">
        <ele>2574.9</ele>
        <time>2018-09-12T04:44:53.000Z</time>
      </trkpt>
      <trkpt lat="42.09459" lon="75.11269">
        <ele>2568.3</ele>
        <time>2018-09-12T04:46:00.000Z</time>
      </trkpt>
      <trkpt lat="42.09388" lon="75.11425">
        <ele>2566.2</ele>
        <time>2018-09-12T04:47:28.000Z</time>
      </trkpt>
      <trkpt lat="42.09334" lon="75.11595">
        <ele>2570.4</ele>
        <time>2018-09-12T04:48:47.000Z</time>
      </trkpt>
      <trkpt lat="42.09283" lon="75.11764">
        <ele>2600.8</ele>
        <time>2018-09-12T04:49:51.000Z</time>
      </trkpt>
      <trkpt lat="42.09243" lon="75.1194">
        <ele>2602.1</ele>
        <time>2018-09-12T04:51:09.000Z</time>
      </trkpt>
      <trkpt lat="42.09204" lon="75.12115">
        <ele>2606.7</ele>
        <time>2018-09-12T04:52:24.000Z</time>
      </trkpt>
      <trkpt lat="42.09186" lon="75.12297">
        <ele>2614.1</ele>
        <time>2018-09-12T04:54:09.000Z</time>
      </trkpt>
      <trkpt lat="42.09125" lon="75.1246">
        <ele>2615.6</ele>
        <time>2018-09-12T04:55:41.000Z</time>
      </trkpt>
      <trkpt lat="42.09103" lon="75.1264">
        <ele>2622.9</ele>
        <time>2018-09-12T04:57:13.000Z</time>
      </trkpt>
      <trkpt lat="42.09168" lon="75.12801">
        <ele>2640.6</ele>
        <time>2018-09-12T04:58:55.000Z</time>
      </trkpt>
      <trkpt lat="42.09237" lon="75.12957">
        <ele>2656.4</ele>
        <time>2018-09-12T05:00:36.000Z</time>
      </trkpt>
      <trkpt lat="42.09296" lon="75.13124">
        <ele>2663.8</ele>
        <time>2018-09-12T05:02:01.000Z</time>
      </trkpt>
      <trkpt lat="42.0931" lon="75.13305">
        <ele>2657.6</ele>
        <time>2018-09-12T05:03:27.000Z</time>
      </trkpt>
      <trkpt lat="42.09319" lon="75.13487">
        <ele>2666</ele>
        <time>2018-09-12T05:04:37.000Z</time>
      </trkpt>
      <trkpt lat="42.09329" lon="75.13671">
        <ele>2678.6</ele>
        <time>2018-09-12T05:06:06.000Z</time>
      </trkpt>
      <trkpt lat="42.09315" lon="75.13856">
        <ele>2692.6</ele>
        <time>2018-09-12T05:11:42.000Z</time>
      </trkpt>
      <trkpt lat="42.09171" lon="75.13918">
        <ele>2693.3</ele>
        <time>2018-09-12T05:22:30.000Z</time>
      </trkpt>
      <trkpt lat="42.09326" lon="75.13848">
        <ele>2693</ele>
        <time>2018-09-12T05:26:47.000Z</time>
      </trkpt>
      <trkpt lat="42.09397" lon="75.14006">
        <ele>2682.5</ele>
        <time>2018-09-12T05:39:05.000Z</time>
      </trkpt>
      <trkpt lat="42.09385" lon="75.14254">
        <ele>2673.3</ele>
        <time>2018-09-12T05:40:06.000Z</time>
      </trkpt>
      <trkpt lat="42.09375" lon="75.14523">
        <ele>2668.9</ele>
        <time>2018-09-12T05:41:07.000Z</time>
      </trkpt>
      <trkpt lat="42.09411" lon="75.14977">
        <ele>2653.2</ele>
        <time>2018-09-12T05:42:08.000Z</time>
      </trkpt>
      <trkpt lat="42.09473" lon="75.15199">
        <ele>2644.9</ele>
        <time>2018-09-12T05:43:09.000Z</time>
      </trkpt>
      <trkpt lat="42.09564" lon="75.15426">
        <ele>2641</ele>
        <time>2018-09-12T05:44:10.000Z</time>
      </trkpt>
      <trkpt lat="42.09584" lon="75.1571">
        <ele>2632.5</ele>
        <time>2018-09-12T05:45:11.000Z</time>
      </trkpt>
      <trkpt lat="42.09629" lon="75.16084">
        <ele>2621.3</ele>
        <time>2018-09-12T05:46:12.000Z</time>
      </trkpt>
      <trkpt lat="42.09789" lon="75.16373">
        <ele>2613.1</ele>
        <time>2018-09-12T05:47:13.000Z</time>
      </trkpt>
      <trkpt lat="42.0995" lon="75.16692">
        <ele>2601.7</ele>
        <time>2018-09-12T05:48:14.000Z</time>
      </trkpt>
      <trkpt lat="42.10047" lon="75.17047">
        <ele>2587.8</ele>
        <time>2018-09-12T05:49:15.000Z</time>
      </trkpt>
      <trkpt lat="42.10201" lon="75.17379">
        <ele>2570.1</ele>
        <time>2018-09-12T05:50:16.000Z</time>
      </trkpt>
      <trkpt lat="42.10288" lon="75.17778">
        <ele>2552.9</ele>
        <time>2018-09-12T05:51:17.000Z</time>
      </trkpt>
      <trkpt lat="42.10292" lon="75.18068">
        <ele>2542.3</ele>
        <time>2018-09-12T05:52:18.000Z</time>
      </trkpt>
      <trkpt lat="42.10244" lon="75.18468">
        <ele>2528.4</ele>
        <time>2018-09-12T05:53:19.000Z</time>
      </trkpt>
      <trkpt lat="42.10302" lon="75.18825">
        <ele>2506.2</ele>
        <time>2018-09-12T05:54:20.000Z</time>
      </trkpt>
      <trkpt lat="42.10358" lon="75.19124">
        <ele>2489.9</ele>
        <time>2018-09-12T05:55:21.000Z</time>
      </trkpt>
      <trkpt lat="42.10413" lon="75.19389">
        <ele>2491.6</ele>
        <time>2018-09-12T05:56:22.000Z</time>
      </trkpt>
      <trkpt lat="42.10442" lon="75.19571">
        <ele>2503.7</ele>
        <time>2018-09-12T05:57:23.000Z</time>
      </trkpt>
      <trkpt lat="42.10478" lon="75.19747">
        <ele>2517.9</ele>
        <time>2018-09-12T05:58:36.000Z</time>
      </trkpt>
      <trkpt lat="42.1052" lon="75.19929">
        <ele>2524.2</ele>
        <time>2018-09-12T05:59:37.000Z</time>
      </trkpt>
      <trkpt lat="42.1058" lon="75.20175">
        <ele>2524.2</ele>
        <time>2018-09-12T06:00:38.000Z</time>
      </trkpt>
      <trkpt lat="42.10647" lon="75.2045">
        <ele>2519.4</ele>
        <time>2018-09-12T06:01:39.000Z</time>
      </trkpt>
      <trkpt lat="42.10716" lon="75.20741">
        <ele>2511.8</ele>
        <time>2018-09-12T06:02:40.000Z</time>
      </trkpt>
      <trkpt lat="42.10799" lon="75.21041">
        <ele>2502.3</ele>
        <time>2018-09-12T06:03:41.000Z</time>
      </trkpt>
      <trkpt lat="42.11001" lon="75.21485">
        <ele>2475.1</ele>
        <time>2018-09-12T06:04:42.000Z</time>
      </trkpt>
      <trkpt lat="42.11125" lon="75.21757">
        <ele>2458.7</ele>
        <time>2018-09-12T06:05:43.000Z</time>
      </trkpt>
      <trkpt lat="42.11239" lon="75.22019">
        <ele>2454.6</ele>
        <time>2018-09-12T06:06:44.000Z</time>
      </trkpt>
      <trkpt lat="42.11351" lon="75.22282">
        <ele>2453.7</ele>
        <time>2018-09-12T06:07:45.000Z</time>
      </trkpt>
      <trkpt lat="42.11412" lon="75.22445">
        <ele>2458</ele>
        <time>2018-09-12T06:10:00.000Z</time>
      </trkpt>
      <trkpt lat="42.11541" lon="75.22871">
        <ele>2462</ele>
        <time>2018-09-12T06:11:01.000Z</time>
      </trkpt>
      <trkpt lat="42.11674" lon="75.23282">
        <ele>2458.5</ele>
        <time>2018-09-12T06:12:02.000Z</time>
      </trkpt>
      <trkpt lat="42.11806" lon="75.23679">
        <ele>2452.8</ele>
        <time>2018-09-12T06:13:03.000Z</time>
      </trkpt>
      <trkpt lat="42.11941" lon="75.2409">
        <ele>2441.6</ele>
        <time>2018-09-12T06:14:04.000Z</time>
      </trkpt>
      <trkpt lat="42.12102" lon="75.24541">
        <ele>2425</ele>
        <time>2018-09-12T06:15:05.000Z</time>
      </trkpt>
      <trkpt lat="42.12188" lon="75.2503">
        <ele>2411.2</ele>
        <time>2018-09-12T06:16:06.000Z</time>
      </trkpt>
      <trkpt lat="42.12335" lon="75.2554">
        <ele>2393.5</ele>
        <time>2018-09-12T06:17:07.000Z</time>
      </trkpt>
      <trkpt lat="42.12521" lon="75.26016">
        <ele>2374.9</ele>
        <time>2018-09-12T06:18:08.000Z</time>
      </trkpt>
      <trkpt lat="42.12684" lon="75.2648">
        <ele>2357.5</ele>
        <time>2018-09-12T06:19:08.000Z</time>
      </trkpt>
      <trkpt lat="42.12795" lon="75.26929">
        <ele>2338.9</ele>
        <time>2018-09-12T06:20:09.000Z</time>
      </trkpt>
      <trkpt lat="42.12885" lon="75.27355">
        <ele>2321.5</ele>
        <time>2018-09-12T06:21:10.000Z</time>
      </trkpt>
      <trkpt lat="42.12966" lon="75.27766">
        <ele>2304.8</ele>
        <time>2018-09-12T06:22:11.000Z</time>
      </trkpt>
      <trkpt lat="42.13089" lon="75.28202">
        <ele>2288.2</ele>
        <time>2018-09-12T06:23:12.000Z</time>
      </trkpt>
      <trkpt lat="42.13148" lon="75.28367">
        <ele>2279.6</ele>
        <time>2018-09-12T06:26:34.000Z</time>
      </trkpt>
      <trkpt lat="42.13284" lon="75.28833">
        <ele>2274.7</ele>
        <time>2018-09-12T06:27:35.000Z</time>
      </trkpt>
      <trkpt lat="42.13389" lon="75.29302">
        <ele>2271</ele>
        <time>2018-09-12T06:28:36.000Z</time>
      </trkpt>
      <trkpt lat="42.13468" lon="75.29908">
        <ele>2269.4</ele>
        <time>2018-09-12T06:29:37.000Z</time>
      </trkpt>
      <trkpt lat="42.13503" lon="75.30143">
        <ele>2265.4</ele>
        <time>2018-09-12T06:30:38.000Z</time>
      </trkpt>
      <trkpt lat="42.14363" lon="75.33714">
        <ele>2175.9</ele>
        <time>2018-09-12T06:45:01.000Z</time>
      </trkpt>
      <trkpt lat="42.1457" lon="75.3416">
        <ele>2165.4</ele>
        <time>2018-09-12T06:46:02.000Z</time>
      </trkpt>
      <trkpt lat="42.14788" lon="75.34583">
        <ele>2153.6</ele>
        <time>2018-09-12T06:47:03.000Z</time>
      </trkpt>
      <trkpt lat="42.14974" lon="75.34986">
        <ele>2144.5</ele>
        <time>2018-09-12T06:48:04.000Z</time>
      </trkpt>
      <trkpt lat="42.15169" lon="75.35437">
        <ele>2136.8</ele>
        <time>2018-09-12T06:49:05.000Z</time>
      </trkpt>
      <trkpt lat="42.15376" lon="75.35817">
        <ele>2128.8</ele>
        <time>2018-09-12T06:50:06.000Z</time>
      </trkpt>
      <trkpt lat="42.15589" lon="75.36178">
        <ele>2127</ele>
        <time>2018-09-12T06:51:07.000Z</time>
      </trkpt>
      <trkpt lat="42.15702" lon="75.36587">
        <ele>2121.7</ele>
        <time>2018-09-12T06:52:08.000Z</time>
      </trkpt>
      <trkpt lat="42.15834" lon="75.3706">
        <ele>2112.6</ele>
        <time>2018-09-12T06:53:09.000Z</time>
      </trkpt>
      <trkpt lat="42.15934" lon="75.37589">
        <ele>2100.5</ele>
        <time>2018-09-12T06:54:10.000Z</time>
      </trkpt>
      <trkpt lat="42.16042" lon="75.38191">
        <ele>2086.6</ele>
        <time>2018-09-12T06:55:11.000Z</time>
      </trkpt>
      <trkpt lat="42.16206" lon="75.38682">
        <ele>2074.8</ele>
        <time>2018-09-12T06:56:12.000Z</time>
      </trkpt>
      <trkpt lat="42.16306" lon="75.39175">
        <ele>2066.9</ele>
        <time>2018-09-12T06:57:13.000Z</time>
      </trkpt>
      <trkpt lat="42.16469" lon="75.39664">
        <ele>2054</ele>
        <time>2018-09-12T06:58:14.000Z</time>
      </trkpt>
      <trkpt lat="42.16662" lon="75.40055">
        <ele>2042.2</ele>
        <time>2018-09-12T06:59:15.000Z</time>
      </trkpt>
      <trkpt lat="42.16866" lon="75.40472">
        <ele>2034.3</ele>
        <time>2018-09-12T07:00:16.000Z</time>
      </trkpt>
      <trkpt lat="42.17044" lon="75.40832">
        <ele>2028.7</ele>
        <time>2018-09-12T07:01:17.000Z</time>
      </trkpt>
      <trkpt lat="42.17168" lon="75.41111">
        <ele>2026.8</ele>
        <time>2018-09-12T07:02:18.000Z</time>
      </trkpt>
      <trkpt lat="42.17236" lon="75.41276">
        <ele>2031.6</ele>
        <time>2018-09-12T07:06:23.000Z</time>
      </trkpt>
      <trkpt lat="42.1733" lon="75.41731">
        <ele>2024.3</ele>
        <time>2018-09-12T07:07:24.000Z</time>
      </trkpt>
      <trkpt lat="42.17337" lon="75.42238">
        <ele>2006.9</ele>
        <time>2018-09-12T07:08:25.000Z</time>
      </trkpt>
      <trkpt lat="42.17486" lon="75.42742">
        <ele>1985.8</ele>
        <time>2018-09-12T07:09:25.000Z</time>
      </trkpt>
      <trkpt lat="42.17626" lon="75.43262">
        <ele>1963.9</ele>
        <time>2018-09-12T07:10:26.000Z</time>
      </trkpt>
      <trkpt lat="42.17816" lon="75.43716">
        <ele>1941.7</ele>
        <time>2018-09-12T07:11:27.000Z</time>
      </trkpt>
      <trkpt lat="42.18012" lon="75.4412">
        <ele>1915.7</ele>
        <time>2018-09-12T07:12:28.000Z</time>
      </trkpt>
      <trkpt lat="42.18204" lon="75.44592">
        <ele>1906.2</ele>
        <time>2018-09-12T07:13:29.000Z</time>
      </trkpt>
      <trkpt lat="42.18333" lon="75.45059">
        <ele>1894.3</ele>
        <time>2018-09-12T07:14:30.000Z</time>
      </trkpt>
      <trkpt lat="42.18456" lon="75.4552">
        <ele>1881.4</ele>
        <time>2018-09-12T07:15:31.000Z</time>
      </trkpt>
      <trkpt lat="42.1858" lon="75.45977">
        <ele>1876.5</ele>
        <time>2018-09-12T07:16:32.000Z</time>
      </trkpt>
      <trkpt lat="42.1868" lon="75.46484">
        <ele>1882.4</ele>
        <time>2018-09-12T07:17:33.000Z</time>
      </trkpt>
      <trkpt lat="42.18773" lon="75.46936">
        <ele>1892.3</ele>
        <time>2018-09-12T07:18:34.000Z</time>
      </trkpt>
      <trkpt lat="42.1881" lon="75.47345">
        <ele>1916.5</ele>
        <time>2018-09-12T07:19:35.000Z</time>
      </trkpt>
      <trkpt lat="42.18827" lon="75.47731">
        <ele>1941</ele>
        <time>2018-09-12T07:20:36.000Z</time>
      </trkpt>
      <trkpt lat="42.18882" lon="75.48183">
        <ele>1959.4</ele>
        <time>2018-09-12T07:21:37.000Z</time>
      </trkpt>
      <trkpt lat="42.18921" lon="75.48602">
        <ele>1962.2</ele>
        <time>2018-09-12T07:22:38.000Z</time>
      </trkpt>
      <trkpt lat="42.18953" lon="75.48961">
        <ele>1956.6</ele>
        <time>2018-09-12T07:23:39.000Z</time>
      </trkpt>
      <trkpt lat="42.18985" lon="75.4936">
        <ele>1947</ele>
        <time>2018-09-12T07:24:40.000Z</time>
      </trkpt>
      <trkpt lat="42.19025" lon="75.49816">
        <ele>1940.5</ele>
        <time>2018-09-12T07:25:41.000Z</time>
      </trkpt>
      <trkpt lat="42.19064" lon="75.50258">
        <ele>1939.7</ele>
        <time>2018-09-12T07:26:42.000Z</time>
      </trkpt>
      <trkpt lat="42.19098" lon="75.50715">
        <ele>1941.9</ele>
        <time>2018-09-12T07:27:43.000Z</time>
      </trkpt>
      <trkpt lat="42.19142" lon="75.51139">
        <ele>1943</ele>
        <time>2018-09-12T07:28:44.000Z</time>
      </trkpt>
      <trkpt lat="42.19165" lon="75.51409">
        <ele>1943.3</ele>
        <time>2018-09-12T07:29:45.000Z</time>
      </trkpt>
      <trkpt lat="42.19185" lon="75.51591">
        <ele>1945.3</ele>
        <time>2018-09-12T08:01:58.000Z</time>
      </trkpt>
      <trkpt lat="42.19212" lon="75.52032">
        <ele>1944.2</ele>
        <time>2018-09-12T08:02:59.000Z</time>
      </trkpt>
      <trkpt lat="42.19248" lon="75.52484">
        <ele>1942.3</ele>
        <time>2018-09-12T08:04:00.000Z</time>
      </trkpt>
      <trkpt lat="42.19289" lon="75.52919">
        <ele>1941.2</ele>
        <time>2018-09-12T08:05:01.000Z</time>
      </trkpt>
      <trkpt lat="42.1933" lon="75.53369">
        <ele>1942.6</ele>
        <time>2018-09-12T08:06:02.000Z</time>
      </trkpt>
      <trkpt lat="42.19361" lon="75.53813">
        <ele>1942.1</ele>
        <time>2018-09-12T08:07:03.000Z</time>
      </trkpt>
      <trkpt lat="42.194" lon="75.54247">
        <ele>1940.7</ele>
        <time>2018-09-12T08:08:04.000Z</time>
      </trkpt>
      <trkpt lat="42.19392" lon="75.54655">
        <ele>1939.7</ele>
        <time>2018-09-12T08:09:05.000Z</time>
      </trkpt>
      <trkpt lat="42.19339" lon="75.55008">
        <ele>1939.9</ele>
        <time>2018-09-12T08:10:06.000Z</time>
      </trkpt>
      <trkpt lat="42.1924" lon="75.55336">
        <ele>1940.5</ele>
        <time>2018-09-12T08:11:07.000Z</time>
      </trkpt>
      <trkpt lat="42.19101" lon="75.55706">
        <ele>1940.6</ele>
        <time>2018-09-12T08:12:08.000Z</time>
      </trkpt>
      <trkpt lat="42.18969" lon="75.56046">
        <ele>1939.3</ele>
        <time>2018-09-12T08:13:09.000Z</time>
      </trkpt>
      <trkpt lat="42.1886" lon="75.56339">
        <ele>1940.6</ele>
        <time>2018-09-12T08:14:10.000Z</time>
      </trkpt>
      <trkpt lat="42.18798" lon="75.5669">
        <ele>1940.7</ele>
        <time>2018-09-12T08:15:10.000Z</time>
      </trkpt>
      <trkpt lat="42.18738" lon="75.57125">
        <ele>1939.6</ele>
        <time>2018-09-12T08:16:11.000Z</time>
      </trkpt>
      <trkpt lat="42.19345" lon="75.64157">
        <ele>1849.5</ele>
        <time>2018-09-12T08:35:03.000Z</time>
      </trkpt>
      <trkpt lat="42.1928" lon="75.64582">
        <ele>1868.8</ele>
        <time>2018-09-12T08:36:04.000Z</time>
      </trkpt>
      <trkpt lat="42.19216" lon="75.64944">
        <ele>1864.3</ele>
        <time>2018-09-12T08:37:05.000Z</time>
      </trkpt>
      <trkpt lat="42.1916" lon="75.65283">
        <ele>1860.9</ele>
        <time>2018-09-12T08:38:06.000Z</time>
      </trkpt>
      <trkpt lat="42.19131" lon="75.65466">
        <ele>1861.8</ele>
        <time>2018-09-12T08:42:11.000Z</time>
      </trkpt>
      <trkpt lat="42.19089" lon="75.65807">
        <ele>1863.1</ele>
        <time>2018-09-12T08:43:12.000Z</time>
      </trkpt>
      <trkpt lat="42.18993" lon="75.66138">
        <ele>1861.3</ele>
        <time>2018-09-12T08:44:13.000Z</time>
      </trkpt>
      <trkpt lat="42.18881" lon="75.66416">
        <ele>1862.2</ele>
        <time>2018-09-12T08:45:14.000Z</time>
      </trkpt>
      <trkpt lat="42.18823" lon="75.66664">
        <ele>1863</ele>
        <time>2018-09-12T08:46:15.000Z</time>
      </trkpt>
      <trkpt lat="42.18841" lon="75.66974">
        <ele>1857.3</ele>
        <time>2018-09-12T08:47:16.000Z</time>
      </trkpt>
      <trkpt lat="42.18858" lon="75.67324">
        <ele>1856.2</ele>
        <time>2018-09-12T08:48:17.000Z</time>
      </trkpt>
      <trkpt lat="42.18875" lon="75.67735">
        <ele>1854.5</ele>
        <time>2018-09-12T08:49:18.000Z</time>
      </trkpt>
      <trkpt lat="42.18892" lon="75.68143">
        <ele>1855.9</ele>
        <time>2018-09-12T08:50:19.000Z</time>
      </trkpt>
      <trkpt lat="42.18913" lon="75.68542">
        <ele>1848.9</ele>
        <time>2018-09-12T08:51:20.000Z</time>
      </trkpt>
      <trkpt lat="42.18935" lon="75.6894">
        <ele>1851.2</ele>
        <time>2018-09-12T08:52:21.000Z</time>
      </trkpt>
      <trkpt lat="42.18953" lon="75.69362">
        <ele>1849.9</ele>
        <time>2018-09-12T08:53:22.000Z</time>
      </trkpt>
      <trkpt lat="42.18969" lon="75.69718">
        <ele>1844.6</ele>
        <time>2018-09-12T08:54:23.000Z</time>
      </trkpt>
      <trkpt lat="42.19028" lon="75.69884">
        <ele>1849.2</ele>
        <time>2018-09-12T08:55:43.000Z</time>
      </trkpt>
      <trkpt lat="42.19276" lon="75.7024">
        <ele>1838.8</ele>
        <time>2018-09-12T08:56:44.000Z</time>
      </trkpt>
      <trkpt lat="42.1949" lon="75.70549">
        <ele>1840.6</ele>
        <time>2018-09-12T08:57:45.000Z</time>
      </trkpt>
      <trkpt lat="42.19707" lon="75.70851">
        <ele>1836.2</ele>
        <time>2018-09-12T08:58:46.000Z</time>
      </trkpt>
      <trkpt lat="42.19917" lon="75.71152">
        <ele>1834.8</ele>
        <time>2018-09-12T08:59:47.000Z</time>
      </trkpt>
      <trkpt lat="42.20141" lon="75.7147">
        <ele>1831.4</ele>
        <time>2018-09-12T09:00:48.000Z</time>
      </trkpt>
      <trkpt lat="42.20374" lon="75.71803">
        <ele>1834.2</ele>
        <time>2018-09-12T09:01:49.000Z</time>
      </trkpt>
      <trkpt lat="42.20583" lon="75.72101">
        <ele>1830.1</ele>
        <time>2018-09-12T09:02:50.000Z</time>
      </trkpt>
      <trkpt lat="42.20795" lon="75.72403">
        <ele>1829.6</ele>
        <time>2018-09-12T09:03:51.000Z</time>
      </trkpt>
      <trkpt lat="42.20929" lon="75.72813">
        <ele>1821.2</ele>
        <time>2018-09-12T09:04:51.000Z</time>
      </trkpt>
      <trkpt lat="42.2103" lon="75.73252">
        <ele>1818.4</ele>
        <time>2018-09-12T09:05:52.000Z</time>
      </trkpt>
      <trkpt lat="42.21119" lon="75.73638">
        <ele>1818.8</ele>
        <time>2018-09-12T09:06:53.000Z</time>
      </trkpt>
      <trkpt lat="42.21206" lon="75.74027">
        <ele>1815.5</ele>
        <time>2018-09-12T09:07:54.000Z</time>
      </trkpt>
      <trkpt lat="42.21288" lon="75.74383">
        <ele>1814.9</ele>
        <time>2018-09-12T09:08:55.000Z</time>
      </trkpt>
      <trkpt lat="42.21377" lon="75.74756">
        <ele>1815.1</ele>
        <time>2018-09-12T09:09:56.000Z</time>
      </trkpt>
      <trkpt lat="42.21475" lon="75.75175">
        <ele>1813.6</ele>
        <time>2018-09-12T09:10:57.000Z</time>
      </trkpt>
      <trkpt lat="42.21525" lon="75.75387">
        <ele>1811</ele>
        <time>2018-09-12T09:11:58.000Z</time>
      </trkpt>
      <trkpt lat="42.21383" lon="75.75407">
        <ele>1806.8</ele>
        <time>2018-09-12T09:17:25.000Z</time>
      </trkpt>
      <trkpt lat="42.21171" lon="75.75496">
        <ele>1811.9</ele>
        <time>2018-09-12T09:18:27.000Z</time>
      </trkpt>
      <trkpt lat="42.20976" lon="75.75575">
        <ele>1816.8</ele>
        <time>2018-09-12T09:19:29.000Z</time>
      </trkpt>
      <trkpt lat="42.20815" lon="75.75586">
        <ele>1823.1</ele>
        <time>2018-09-12T09:20:30.000Z</time>
      </trkpt>
      <trkpt lat="42.20804" lon="75.75402">
        <ele>1832.6</ele>
        <time>2018-09-12T09:21:54.000Z</time>
      </trkpt>
      <trkpt lat="42.20749" lon="75.75578">
        <ele>1821.3</ele>
        <time>2018-09-12T09:33:40.000Z</time>
      </trkpt>
      <trkpt lat="42.20639" lon="75.7547">
        <ele>1822.5</ele>
        <time>2018-09-12T09:34:42.000Z</time>
      </trkpt>
      <trkpt lat="42.20605" lon="75.75292">
        <ele>1826.7</ele>
        <time>2018-09-12T09:37:03.000Z</time>
      </trkpt>
    </trkseg>
  </trk>
</gpx>